Savannah River Plant, South Carolina
Current Conditions -  °F | °C
As of 2:55 AM on Wednesday 26 Nov 2014 (Local Time) from KBNL Reporting Station
Heavy Rain Heavy Rain  
Wind Chill: 50°   Ceiling: NA
Heat Index: 50°   Visibility: NA
Dew Point: 48°   Wind: 10mph
Humidity: 94%   Direction: 320°NW
Pressure: 29.9"   Gusts: 18mph
Location:  33.2653°N, 81.6553°W
Report Text: KBNL 260755Z AUTO 32009G16KT +RA 10/09 A2990 RMK AO2 P0004
Loading
Personal Weather Stations






























Interactive Weather Map New forecast layout! Learn more

10-Day Weather Forecast

Advertisements
Track Severe Weather on mobile